Flight Briefing for CPX778

Departure Arrival
Incheon International Airport (RKSI)
Click to view FAA NOTAMS
Chinggis Khaan International Airport (ZMUB)
Click to view FAA NOTAMS
Departure Time Arrival Time
N/A N/A
Aircraft Distance
B767-300BDSF 1066nm
Departure METAR Arrival METAR
RKSI 152030Z 34010KT 5000 -SN BR BKN030 M04/M09 Q1024 NOSIG ZMUB 152000Z VRB01MPS CAVOK M29/M32 Q1029 NOSIG RMK QFE663.5 71
Suggested Route
NOPIK1Y NOPIK G597 DONVO A326 LADIX B339 UDA


View recent IFR Routes data
Notes



Charts and Procedures

Charts for RKSI
No chart available
Charts for ZMUB
No chart available

Ventusky Weather